Terminal Aerodrome Forecast
Issued by NWS Cleveland, OH

Home | Current Version | Previous Version | Text Only | Print | Product List | Glossary Off
Versions: 1 2 3 4 5 6 7 8 9 10 11 12 13 14 15 16 17 18 19 20 21 22 23

764
FTUS41 KCLE 290507 AAA
TAFTOL
TAF AMD
KTOL 290507Z 2905/2924 VRB03KT 3SM BR BKN002
     FM290800 36003KT 5SM BR SCT002
     FM291200 36005KT P6SM SCT250
     FM291400 06005KT P6SM FEW050=

USA.gov is the U.S. government's official web portal to all federal, state and local government web resources and services.